sensor_id;sensor_type;location;lat;lon;timestamp;noise_LAeq;noise_LA_min;noise_LA_max;noise_LA01;noise_LA95
72028;Laerm;59781;52.090;5.030;2022-08-05T00:01:16;37.24;35.22;39.13;;
72028;Laerm;59781;52.090;5.030;2022-08-05T00:03:43;37.44;35.40;39.62;;
72028;Laerm;59781;52.090;5.030;2022-08-05T00:06:09;37.33;35.21;47.29;;
72028;Laerm;59781;52.090;5.030;2022-08-05T00:08:36;37.33;35.59;40.66;;
72028;Laerm;59781;52.090;5.030;2022-08-05T00:11:07;41.23;35.29;75.27;;
72028;Laerm;59781;52.090;5.030;2022-08-05T00:13:36;37.29;34.95;38.90;;
72028;Laerm;59781;52.090;5.030;2022-08-05T00:16:03;37.66;35.59;42.70;;
72028;Laerm;59781;52.090;5.030;2022-08-05T00:18:30;37.51;35.46;42.22;;
72028;Laerm;59781;52.090;5.030;2022-08-05T00:20:56;40.11;35.11;50.70;;
72028;Laerm;59781;52.090;5.030;2022-08-05T00:23:23;37.38;35.43;44.28;;
72028;Laerm;59781;52.090;5.030;2022-08-05T00:25:50;37.21;35.46;39.50;;
72028;Laerm;59781;52.090;5.030;2022-08-05T00:28:15;37.46;35.49;41.05;;
72028;Laerm;59781;52.090;5.030;2022-08-05T00:30:42;39.02;35.62;48.38;;
72028;Laerm;59781;52.090;5.030;2022-08-05T00:33:08;37.55;35.15;42.12;;
72028;Laerm;59781;52.090;5.030;2022-08-05T00:35:34;37.18;34.82;38.99;;
72028;Laerm;59781;52.090;5.030;2022-08-05T00:38:00;37.32;35.27;38.95;;
72028;Laerm;59781;52.090;5.030;2022-08-05T00:40:27;38.30;35.72;45.78;;
72028;Laerm;59781;52.090;5.030;2022-08-05T00:42:57;37.28;35.50;39.87;;
72028;Laerm;59781;52.090;5.030;2022-08-05T00:45:23;37.30;35.40;39.02;;
72028;Laerm;59781;52.090;5.030;2022-08-05T00:47:49;37.36;35.52;39.27;;
72028;Laerm;59781;52.090;5.030;2022-08-05T00:50:14;37.31;35.33;38.91;;
72028;Laerm;59781;52.090;5.030;2022-08-05T00:52:40;37.31;35.36;41.06;;
72028;Laerm;59781;52.090;5.030;2022-08-05T00:55:06;37.79;35.37;45.31;;
72028;Laerm;59781;52.090;5.030;2022-08-05T00:57:32;37.43;35.37;39.76;;
72028;Laerm;59781;52.090;5.030;2022-08-05T00:59:57;37.66;35.57;44.05;;
72028;Laerm;59781;52.090;5.030;2022-08-05T01:02:23;37.41;35.41;40.10;;
72028;Laerm;59781;52.090;5.030;2022-08-05T01:04:49;37.35;35.16;42.47;;
72028;Laerm;59781;52.090;5.030;2022-08-05T01:07:14;37.37;35.53;39.38;;
72028;Laerm;59781;52.090;5.030;2022-08-05T01:09:41;37.62;35.37;44.61;;
72028;Laerm;59781;52.090;5.030;2022-08-05T01:12:16;37.29;35.17;39.18;;
72028;Laerm;59781;52.090;5.030;2022-08-05T01:14:56;37.45;35.46;40.71;;
72028;Laerm;59781;52.090;5.030;2022-08-05T01:17:29;37.52;35.63;47.63;;
72028;Laerm;59781;52.090;5.030;2022-08-05T01:23:34;37.31;35.38;39.12;;
72028;Laerm;59781;52.090;5.030;2022-08-05T01:29:00;37.42;35.60;39.29;;
72028;Laerm;59781;52.090;5.030;2022-08-05T01:31:42;37.30;35.29;39.17;;
72028;Laerm;59781;52.090;5.030;2022-08-05T01:34:38;37.16;35.37;38.84;;
72028;Laerm;59781;52.090;5.030;2022-08-05T01:37:21;37.25;35.02;39.06;;
72028;Laerm;59781;52.090;5.030;2022-08-05T01:39:52;37.30;35.18;39.01;;
72028;Laerm;59781;52.090;5.030;2022-08-05T01:42:22;37.30;35.20;38.84;;
72028;Laerm;59781;52.090;5.030;2022-08-05T01:44:50;37.32;35.41;38.99;;
72028;Laerm;59781;52.090;5.030;2022-08-05T01:47:18;40.20;35.53;62.49;;
72028;Laerm;59781;52.090;5.030;2022-08-05T01:49:51;37.67;35.58;54.46;;
72028;Laerm;59781;52.090;5.030;2022-08-05T01:52:22;37.40;35.34;40.18;;
72028;Laerm;59781;52.090;5.030;2022-08-05T01:54:55;37.23;35.53;38.95;;
72028;Laerm;59781;52.090;5.030;2022-08-05T01:57:39;37.56;35.35;51.51;;
72028;Laerm;59781;52.090;5.030;2022-08-05T02:00:08;37.19;35.21;38.84;;
72028;Laerm;59781;52.090;5.030;2022-08-05T02:02:40;37.24;35.23;38.96;;
72028;Laerm;59781;52.090;5.030;2022-08-05T02:05:12;37.36;35.46;40.78;;
72028;Laerm;59781;52.090;5.030;2022-08-05T02:07:39;38.65;35.14;51.21;;
72028;Laerm;59781;52.090;5.030;2022-08-05T02:10:08;37.33;35.43;39.03;;
72028;Laerm;59781;52.090;5.030;2022-08-05T02:12:43;37.53;35.53;48.20;;
72028;Laerm;59781;52.090;5.030;2022-08-05T02:18:05;37.24;35.61;40.13;;
72028;Laerm;59781;52.090;5.030;2022-08-05T02:20:56;40.08;35.25;50.45;;
72028;Laerm;59781;52.090;5.030;2022-08-05T02:23:32;37.29;35.38;39.62;;
72028;Laerm;59781;52.090;5.030;2022-08-05T02:26:05;37.39;35.33;40.32;;
72028;Laerm;59781;52.090;5.030;2022-08-05T02:28:40;37.38;35.62;41.49;;
72028;Laerm;59781;52.090;5.030;2022-08-05T02:31:14;37.42;35.49;40.32;;
72028;Laerm;59781;52.090;5.030;2022-08-05T02:33:58;37.53;35.46;50.77;;
72028;Laerm;59781;52.090;5.030;2022-08-05T02:36:27;37.41;35.43;51.33;;
72028;Laerm;59781;52.090;5.030;2022-08-05T02:39:02;37.38;35.32;39.06;;
72028;Laerm;59781;52.090;5.030;2022-08-05T02:41:32;37.45;35.47;41.63;;
72028;Laerm;59781;52.090;5.030;2022-08-05T02:44:00;37.50;35.46;40.40;;
72028;Laerm;59781;52.090;5.030;2022-08-05T02:46:28;37.82;35.73;44.17;;
72028;Laerm;59781;52.090;5.030;2022-08-05T02:48:56;37.54;35.56;40.82;;
72028;Laerm;59781;52.090;5.030;2022-08-05T02:51:25;37.59;35.39;43.06;;
72028;Laerm;59781;52.090;5.030;2022-08-05T02:53:53;37.86;35.33;40.89;;
72028;Laerm;59781;52.090;5.030;2022-08-05T02:56:20;37.66;35.57;41.64;;
72028;Laerm;59781;52.090;5.030;2022-08-05T02:58:49;37.55;35.66;39.26;;
72028;Laerm;59781;52.090;5.030;2022-08-05T03:01:23;37.62;35.62;39.57;;
72028;Laerm;59781;52.090;5.030;2022-08-05T03:03:53;37.56;35.65;45.64;;
72028;Laerm;59781;52.090;5.030;2022-08-05T03:06:22;37.59;35.88;39.52;;
72028;Laerm;59781;52.090;5.030;2022-08-05T03:08:49;37.71;35.46;42.75;;
72028;Laerm;59781;52.090;5.030;2022-08-05T03:11:23;37.78;35.78;40.48;;
72028;Laerm;59781;52.090;5.030;2022-08-05T03:13:52;37.72;35.77;39.81;;
72028;Laerm;59781;52.090;5.030;2022-08-05T03:16:19;38.01;35.72;44.66;;
72028;Laerm;59781;52.090;5.030;2022-08-05T03:18:44;37.74;35.61;39.62;;
72028;Laerm;59781;52.090;5.030;2022-08-05T03:21:11;37.70;35.66;40.01;;
72028;Laerm;59781;52.090;5.030;2022-08-05T03:23:43;37.64;35.88;39.70;;
72028;Laerm;59781;52.090;5.030;2022-08-05T03:26:10;37.58;35.70;39.38;;
72028;Laerm;59781;52.090;5.030;2022-08-05T03:28:36;38.05;35.54;45.53;;
72028;Laerm;59781;52.090;5.030;2022-08-05T03:31:03;37.55;35.67;42.50;;
72028;Laerm;59781;52.090;5.030;2022-08-05T03:33:30;41.73;36.06;51.18;;
72028;Laerm;59781;52.090;5.030;2022-08-05T03:35:58;38.57;35.50;47.85;;
72028;Laerm;59781;52.090;5.030;2022-08-05T03:38:25;37.74;35.54;41.06;;
72028;Laerm;59781;52.090;5.030;2022-08-05T03:40:51;37.54;35.29;39.46;;
72028;Laerm;59781;52.090;5.030;2022-08-05T03:43:20;37.70;35.34;42.88;;
72028;Laerm;59781;52.090;5.030;2022-08-05T03:45:49;37.79;35.49;42.34;;
72028;Laerm;59781;52.090;5.030;2022-08-05T03:48:16;37.78;35.85;43.70;;
72028;Laerm;59781;52.090;5.030;2022-08-05T03:50:50;37.65;35.71;39.39;;
72028;Laerm;59781;52.090;5.030;2022-08-05T03:53:36;37.77;35.63;41.34;;
72028;Laerm;59781;52.090;5.030;2022-08-05T03:58:52;38.44;35.59;55.37;;
72028;Laerm;59781;52.090;5.030;2022-08-05T04:01:22;38.01;35.75;45.18;;
72028;Laerm;59781;52.090;5.030;2022-08-05T04:03:51;38.24;35.88;50.54;;
72028;Laerm;59781;52.090;5.030;2022-08-05T04:06:19;38.16;35.70;43.94;;
72028;Laerm;59781;52.090;5.030;2022-08-05T04:08:46;39.03;35.92;53.12;;
72028;Laerm;59781;52.090;5.030;2022-08-05T04:11:12;38.36;35.60;58.54;;
72028;Laerm;59781;52.090;5.030;2022-08-05T04:13:40;38.16;35.72;44.06;;
72028;Laerm;59781;52.090;5.030;2022-08-05T04:16:12;37.99;35.87;49.81;;
72028;Laerm;59781;52.090;5.030;2022-08-05T04:18:38;39.06;35.84;67.91;;
72028;Laerm;59781;52.090;5.030;2022-08-05T04:21:05;52.24;36.17;84.39;;
72028;Laerm;59781;52.090;5.030;2022-08-05T04:23:34;38.40;36.32;47.58;;
72028;Laerm;59781;52.090;5.030;2022-08-05T04:26:04;38.63;36.09;60.09;;
72028;Laerm;59781;52.090;5.030;2022-08-05T04:28:30;38.54;36.18;55.60;;
72028;Laerm;59781;52.090;5.030;2022-08-05T04:30:56;37.89;35.77;40.26;;
72028;Laerm;59781;52.090;5.030;2022-08-05T04:33:22;38.01;35.78;44.13;;
72028;Laerm;59781;52.090;5.030;2022-08-05T04:35:47;38.43;35.97;46.88;;
72028;Laerm;59781;52.090;5.030;2022-08-05T04:38:13;38.26;36.12;41.83;;
72028;Laerm;59781;52.090;5.030;2022-08-05T04:40:40;38.09;35.96;43.89;;
72028;Laerm;59781;52.090;5.030;2022-08-05T04:43:06;38.47;36.18;45.77;;
72028;Laerm;59781;52.090;5.030;2022-08-05T04:45:33;38.72;35.89;59.59;;
72028;Laerm;59781;52.090;5.030;2022-08-05T04:48:09;38.81;35.73;58.12;;
72028;Laerm;59781;52.090;5.030;2022-08-05T04:50:46;45.97;36.33;75.40;;
72028;Laerm;59781;52.090;5.030;2022-08-05T04:53:16;44.68;36.34;74.96;;
72028;Laerm;59781;52.090;5.030;2022-08-05T04:55:43;39.40;36.31;54.27;;
72028;Laerm;59781;52.090;5.030;2022-08-05T04:58:13;40.78;36.14;63.08;;
72028;Laerm;59781;52.090;5.030;2022-08-05T05:00:40;39.21;36.24;48.74;;
72028;Laerm;59781;52.090;5.030;2022-08-05T05:03:09;39.96;36.66;53.11;;
72028;Laerm;59781;52.090;5.030;2022-08-05T05:05:36;38.69;36.46;44.40;;
72028;Laerm;59781;52.090;5.030;2022-08-05T05:08:08;55.50;36.19;76.79;;
72028;Laerm;59781;52.090;5.030;2022-08-05T05:10:44;44.18;36.69;72.30;;
72028;Laerm;59781;52.090;5.030;2022-08-05T05:13:15;43.56;37.07;73.33;;
72028;Laerm;59781;52.090;5.030;2022-08-05T05:15:43;39.18;36.19;48.29;;
72028;Laerm;59781;52.090;5.030;2022-08-05T05:18:16;39.67;36.56;51.35;;
72028;Laerm;59781;52.090;5.030;2022-08-05T05:20:44;40.27;36.84;57.52;;
72028;Laerm;59781;52.090;5.030;2022-08-05T05:23:11;41.96;36.59;61.46;;
72028;Laerm;59781;52.090;5.030;2022-08-05T05:25:41;41.91;36.65;58.90;;
72028;Laerm;59781;52.090;5.030;2022-08-05T05:28:09;40.24;37.01;48.66;;
72028;Laerm;59781;52.090;5.030;2022-08-05T05:30:37;42.30;37.12;58.53;;
72028;Laerm;59781;52.090;5.030;2022-08-05T05:33:06;40.79;36.44;66.25;;
72028;Laerm;59781;52.090;5.030;2022-08-05T05:35:33;40.02;36.51;53.15;;
72028;Laerm;59781;52.090;5.030;2022-08-05T05:38:01;51.55;36.91;81.64;;
72028;Laerm;59781;52.090;5.030;2022-08-05T05:40:32;42.98;36.69;54.42;;
72028;Laerm;59781;52.090;5.030;2022-08-05T05:42:58;40.77;37.43;51.49;;
72028;Laerm;59781;52.090;5.030;2022-08-05T05:45:24;40.73;37.01;49.44;;
72028;Laerm;59781;52.090;5.030;2022-08-05T05:47:51;46.34;37.10;61.30;;
72028;Laerm;59781;52.090;5.030;2022-08-05T05:50:18;39.92;36.84;51.49;;
72028;Laerm;59781;52.090;5.030;2022-08-05T05:52:46;40.99;37.34;53.19;;
72028;Laerm;59781;52.090;5.030;2022-08-05T05:55:14;39.91;36.98;50.09;;
72028;Laerm;59781;52.090;5.030;2022-08-05T05:57:43;39.83;36.77;44.34;;
72028;Laerm;59781;52.090;5.030;2022-08-05T06:00:14;40.76;37.00;47.72;;
72028;Laerm;59781;52.090;5.030;2022-08-05T06:02:41;39.44;36.81;50.18;;
72028;Laerm;59781;52.090;5.030;2022-08-05T06:05:10;39.05;36.71;43.38;;
72028;Laerm;59781;52.090;5.030;2022-08-05T06:07:36;42.84;36.95;62.97;;
72028;Laerm;59781;52.090;5.030;2022-08-05T06:10:06;41.03;36.68;48.81;;
72028;Laerm;59781;52.090;5.030;2022-08-05T06:12:34;39.43;36.54;51.27;;
72028;Laerm;59781;52.090;5.030;2022-08-05T06:15:02;39.60;36.55;46.70;;
72028;Laerm;59781;52.090;5.030;2022-08-05T06:17:28;39.65;36.77;46.05;;
72028;Laerm;59781;52.090;5.030;2022-08-05T06:19:54;44.83;37.08;57.48;;
72028;Laerm;59781;52.090;5.030;2022-08-05T06:22:26;43.10;37.14;60.67;;
72028;Laerm;59781;52.090;5.030;2022-08-05T06:24:52;40.46;36.83;65.33;;
72028;Laerm;59781;52.090;5.030;2022-08-05T06:27:18;40.41;37.09;62.31;;
72028;Laerm;59781;52.090;5.030;2022-08-05T06:29:44;39.71;36.91;54.65;;
72028;Laerm;59781;52.090;5.030;2022-08-05T06:32:10;45.86;37.46;68.18;;
72028;Laerm;59781;52.090;5.030;2022-08-05T06:34:36;41.94;37.44;58.21;;
72028;Laerm;59781;52.090;5.030;2022-08-05T06:37:02;44.11;37.62;73.62;;
72028;Laerm;59781;52.090;5.030;2022-08-05T06:39:28;40.46;37.51;49.00;;
72028;Laerm;59781;52.090;5.030;2022-08-05T06:41:59;54.23;37.87;69.38;;
72028;Laerm;59781;52.090;5.030;2022-08-05T06:44:28;54.41;38.81;69.24;;
72028;Laerm;59781;52.090;5.030;2022-08-05T06:46:55;43.35;38.28;53.79;;
72028;Laerm;59781;52.090;5.030;2022-08-05T06:49:21;44.11;38.23;55.97;;
72028;Laerm;59781;52.090;5.030;2022-08-05T06:51:47;43.21;38.13;67.67;;
72028;Laerm;59781;52.090;5.030;2022-08-05T06:54:13;41.64;38.12;53.52;;
72028;Laerm;59781;52.090;5.030;2022-08-05T06:56:39;41.32;38.26;54.75;;
72028;Laerm;59781;52.090;5.030;2022-08-05T06:59:06;40.93;37.69;51.76;;
72028;Laerm;59781;52.090;5.030;2022-08-05T07:01:32;41.34;38.15;52.72;;
72028;Laerm;59781;52.090;5.030;2022-08-05T07:04:01;42.36;38.46;54.56;;
72028;Laerm;59781;52.090;5.030;2022-08-05T07:06:27;41.40;38.37;51.02;;
72028;Laerm;59781;52.090;5.030;2022-08-05T07:08:52;40.74;37.79;56.12;;
72028;Laerm;59781;52.090;5.030;2022-08-05T07:11:19;41.03;37.93;56.76;;
72028;Laerm;59781;52.090;5.030;2022-08-05T07:13:44;42.02;37.55;58.00;;
72028;Laerm;59781;52.090;5.030;2022-08-05T07:16:29;40.40;37.03;56.41;;
72028;Laerm;59781;52.090;5.030;2022-08-05T07:19:14;41.63;37.69;55.11;;
72028;Laerm;59781;52.090;5.030;2022-08-05T07:21:39;41.19;37.58;50.93;;
72028;Laerm;59781;52.090;5.030;2022-08-05T07:24:06;41.05;37.77;50.76;;
72028;Laerm;59781;52.090;5.030;2022-08-05T07:26:32;50.12;37.64;62.50;;
72028;Laerm;59781;52.090;5.030;2022-08-05T07:28:58;45.99;38.52;60.53;;
72028;Laerm;59781;52.090;5.030;2022-08-05T07:31:23;40.89;38.22;50.34;;
72028;Laerm;59781;52.090;5.030;2022-08-05T07:33:49;42.74;37.83;54.21;;
72028;Laerm;59781;52.090;5.030;2022-08-05T07:36:15;40.66;37.42;53.18;;
72028;Laerm;59781;52.090;5.030;2022-08-05T07:38:40;40.89;37.94;46.20;;
72028;Laerm;59781;52.090;5.030;2022-08-05T07:41:10;40.86;37.88;55.31;;
72028;Laerm;59781;52.090;5.030;2022-08-05T07:43:37;41.08;37.68;52.29;;
72028;Laerm;59781;52.090;5.030;2022-08-05T07:46:02;46.55;37.53;61.00;;
72028;Laerm;59781;52.090;5.030;2022-08-05T07:48:28;40.76;37.36;54.31;;
72028;Laerm;59781;52.090;5.030;2022-08-05T07:50:54;41.03;37.65;50.11;;
72028;Laerm;59781;52.090;5.030;2022-08-05T07:53:19;45.50;37.96;58.46;;
72028;Laerm;59781;52.090;5.030;2022-08-05T07:55:45;40.44;37.29;51.20;;
72028;Laerm;59781;52.090;5.030;2022-08-05T07:58:11;44.60;37.69;58.35;;
72028;Laerm;59781;52.090;5.030;2022-08-05T08:00:36;41.93;36.98;55.45;;
72028;Laerm;59781;52.090;5.030;2022-08-05T08:03:02;41.67;37.25;54.04;;
72028;Laerm;59781;52.090;5.030;2022-08-05T08:05:28;40.59;36.88;50.93;;
72028;Laerm;59781;52.090;5.030;2022-08-05T08:07:54;43.69;36.32;53.93;;
72028;Laerm;59781;52.090;5.030;2022-08-05T08:10:21;40.06;37.03;49.26;;
72028;Laerm;59781;52.090;5.030;2022-08-05T08:12:49;41.12;37.49;55.01;;
72028;Laerm;59781;52.090;5.030;2022-08-05T08:15:15;41.23;37.09;56.03;;
72028;Laerm;59781;52.090;5.030;2022-08-05T08:17:42;40.01;36.98;48.50;;
72028;Laerm;59781;52.090;5.030;2022-08-05T08:20:08;52.57;37.29;72.52;;
72028;Laerm;59781;52.090;5.030;2022-08-05T08:22:34;47.54;36.96;65.52;;
72028;Laerm;59781;52.090;5.030;2022-08-05T08:25:00;40.58;37.01;57.67;;
72028;Laerm;59781;52.090;5.030;2022-08-05T08:27:26;44.04;36.94;67.50;;
72028;Laerm;59781;52.090;5.030;2022-08-05T08:29:51;46.57;37.43;69.46;;
72028;Laerm;59781;52.090;5.030;2022-08-05T08:32:17;43.29;37.13;59.02;;
72028;Laerm;59781;52.090;5.030;2022-08-05T08:34:43;41.34;36.68;56.48;;
72028;Laerm;59781;52.090;5.030;2022-08-05T08:37:08;41.54;36.91;62.29;;
72028;Laerm;59781;52.090;5.030;2022-08-05T08:39:34;44.50;37.33;69.96;;
72028;Laerm;59781;52.090;5.030;2022-08-05T08:42:01;44.16;38.54;66.20;;
72028;Laerm;59781;52.090;5.030;2022-08-05T08:44:32;42.66;38.46;63.04;;
72028;Laerm;59781;52.090;5.030;2022-08-05T08:46:59;44.36;38.06;58.85;;
72028;Laerm;59781;52.090;5.030;2022-08-05T08:49:33;43.65;38.46;69.70;;
72028;Laerm;59781;52.090;5.030;2022-08-05T08:52:23;43.83;37.73;66.17;;
72028;Laerm;59781;52.090;5.030;2022-08-05T08:54:52;42.22;37.09;56.55;;
72028;Laerm;59781;52.090;5.030;2022-08-05T08:57:18;48.16;40.10;61.97;;
72028;Laerm;59781;52.090;5.030;2022-08-05T08:59:45;62.61;38.46;80.50;;
72028;Laerm;59781;52.090;5.030;2022-08-05T09:02:11;41.75;37.60;56.75;;
72028;Laerm;59781;52.090;5.030;2022-08-05T09:04:38;42.10;37.91;62.57;;
72028;Laerm;59781;52.090;5.030;2022-08-05T09:07:07;44.00;37.19;68.46;;
72028;Laerm;59781;52.090;5.030;2022-08-05T09:09:35;43.13;36.87;66.06;;
72028;Laerm;59781;52.090;5.030;2022-08-05T09:12:04;42.82;37.61;67.16;;
72028;Laerm;59781;52.090;5.030;2022-08-05T09:14:37;43.45;37.90;59.97;;
72028;Laerm;59781;52.090;5.030;2022-08-05T09:17:07;42.60;37.68;55.15;;
72028;Laerm;59781;52.090;5.030;2022-08-05T09:19:34;46.61;37.63;67.83;;
72028;Laerm;59781;52.090;5.030;2022-08-05T09:22:00;45.92;37.82;66.75;;
72028;Laerm;59781;52.090;5.030;2022-08-05T09:24:26;49.57;37.53;70.93;;
72028;Laerm;59781;52.090;5.030;2022-08-05T09:26:56;47.98;37.56;70.08;;
72028;Laerm;59781;52.090;5.030;2022-08-05T09:29:41;41.92;37.03;53.08;;
72028;Laerm;59781;52.090;5.030;2022-08-05T09:32:11;41.24;37.32;56.19;;
72028;Laerm;59781;52.090;5.030;2022-08-05T09:34:54;44.69;37.06;68.26;;
72028;Laerm;59781;52.090;5.030;2022-08-05T09:37:25;43.20;37.23;56.14;;
72028;Laerm;59781;52.090;5.030;2022-08-05T09:39:53;40.42;36.92;59.63;;
72028;Laerm;59781;52.090;5.030;2022-08-05T09:42:21;42.77;37.07;67.84;;
72028;Laerm;59781;52.090;5.030;2022-08-05T09:44:50;42.01;36.70;62.52;;
72028;Laerm;59781;52.090;5.030;2022-08-05T09:47:25;48.53;36.61;69.81;;
72028;Laerm;59781;52.090;5.030;2022-08-05T09:49:55;49.34;36.79;71.25;;
72028;Laerm;59781;52.090;5.030;2022-08-05T09:52:32;40.25;36.76;51.09;;
72028;Laerm;59781;52.090;5.030;2022-08-05T09:55:05;40.13;36.70;58.44;;
72028;Laerm;59781;52.090;5.030;2022-08-05T09:57:40;44.56;36.67;72.77;;
72028;Laerm;59781;52.090;5.030;2022-08-05T10:00:16;43.30;36.40;69.68;;
72028;Laerm;59781;52.090;5.030;2022-08-05T10:02:47;41.57;36.68;62.91;;
72028;Laerm;59781;52.090;5.030;2022-08-05T10:05:23;41.67;36.71;70.98;;
72028;Laerm;59781;52.090;5.030;2022-08-05T10:10:21;40.23;37.23;51.12;;
72028;Laerm;59781;52.090;5.030;2022-08-05T10:12:53;40.50;37.23;56.69;;
72028;Laerm;59781;52.090;5.030;2022-08-05T10:15:27;40.14;37.21;57.55;;
72028;Laerm;59781;52.090;5.030;2022-08-05T10:18:16;42.41;37.22;56.37;;
72028;Laerm;59781;52.090;5.030;2022-08-05T10:20:56;40.80;36.97;52.04;;
72028;Laerm;59781;52.090;5.030;2022-08-05T10:23:26;41.12;37.43;51.86;;
72028;Laerm;59781;52.090;5.030;2022-08-05T10:25:55;39.52;36.86;47.28;;
72028;Laerm;59781;52.090;5.030;2022-08-05T10:28:21;40.18;37.46;44.72;;
72028;Laerm;59781;52.090;5.030;2022-08-05T10:30:47;40.01;36.74;48.62;;
72028;Laerm;59781;52.090;5.030;2022-08-05T10:33:13;40.90;38.11;45.83;;
72028;Laerm;59781;52.090;5.030;2022-08-05T10:35:39;40.88;37.69;47.40;;
72028;Laerm;59781;52.090;5.030;2022-08-05T10:38:07;44.46;37.72;56.42;;
72028;Laerm;59781;52.090;5.030;2022-08-05T10:40:49;42.11;37.82;50.77;;
72028;Laerm;59781;52.090;5.030;2022-08-05T10:43:46;44.73;38.00;69.32;;
72028;Laerm;59781;52.090;5.030;2022-08-05T10:46:17;42.88;37.80;70.31;;
72028;Laerm;59781;52.090;5.030;2022-08-05T10:48:46;44.92;37.43;72.80;;
72028;Laerm;59781;52.090;5.030;2022-08-05T10:51:18;41.75;37.90;66.89;;
72028;Laerm;59781;52.090;5.030;2022-08-05T10:53:58;44.31;38.02;72.05;;
72028;Laerm;59781;52.090;5.030;2022-08-05T10:56:28;44.50;38.15;68.69;;
72028;Laerm;59781;52.090;5.030;2022-08-05T11:01:39;41.82;37.87;59.77;;
72028;Laerm;59781;52.090;5.030;2022-08-05T11:04:23;43.66;38.02;72.06;;
72028;Laerm;59781;52.090;5.030;2022-08-05T11:10:20;42.39;37.76;56.80;;
72028;Laerm;59781;52.090;5.030;2022-08-05T11:12:46;41.31;37.37;45.55;;
72028;Laerm;59781;52.090;5.030;2022-08-05T11:17:43;40.83;38.14;61.65;;
72028;Laerm;59781;52.090;5.030;2022-08-05T11:20:39;41.04;38.29;52.19;;
72028;Laerm;59781;52.090;5.030;2022-08-05T11:23:51;52.42;37.42;68.81;;
72028;Laerm;59781;52.090;5.030;2022-08-05T11:28:52;43.37;37.63;63.74;;
72028;Laerm;59781;52.090;5.030;2022-08-05T11:31:24;45.77;40.46;55.89;;
72028;Laerm;59781;52.090;5.030;2022-08-05T11:34:04;46.18;38.77;52.07;;
72028;Laerm;59781;52.090;5.030;2022-08-05T11:36:46;42.53;38.33;52.31;;
72028;Laerm;59781;52.090;5.030;2022-08-05T11:39:16;43.09;38.67;51.63;;
72028;Laerm;59781;52.090;5.030;2022-08-05T11:41:50;42.75;39.12;52.20;;
72028;Laerm;59781;52.090;5.030;2022-08-05T11:44:19;41.27;37.63;50.64;;
72028;Laerm;59781;52.090;5.030;2022-08-05T11:46:51;41.00;38.28;53.28;;
72028;Laerm;59781;52.090;5.030;2022-08-05T11:49:21;40.55;36.88;47.10;;
72028;Laerm;59781;52.090;5.030;2022-08-05T11:51:51;43.13;37.90;60.63;;
72028;Laerm;59781;52.090;5.030;2022-08-05T11:54:26;41.28;37.22;51.89;;
72028;Laerm;59781;52.090;5.030;2022-08-05T11:56:55;40.64;37.17;45.93;;
72028;Laerm;59781;52.090;5.030;2022-08-05T11:59:28;40.66;37.67;53.67;;
72028;Laerm;59781;52.090;5.030;2022-08-05T12:04:20;44.06;37.53;72.75;;
72028;Laerm;59781;52.090;5.030;2022-08-05T12:06:46;41.27;38.19;53.07;;
72028;Laerm;59781;52.090;5.030;2022-08-05T12:09:20;39.81;37.15;43.71;;
72028;Laerm;59781;52.090;5.030;2022-08-05T12:11:48;39.87;37.33;45.19;;
72028;Laerm;59781;52.090;5.030;2022-08-05T12:14:14;48.47;37.46;78.19;;
72028;Laerm;59781;52.090;5.030;2022-08-05T12:16:43;41.34;38.06;54.69;;
72028;Laerm;59781;52.090;5.030;2022-08-05T12:19:10;41.02;37.56;52.63;;
72028;Laerm;59781;52.090;5.030;2022-08-05T12:21:46;48.39;37.46;64.64;;
72028;Laerm;59781;52.090;5.030;2022-08-05T12:24:20;59.83;40.09;70.47;;
72028;Laerm;59781;52.090;5.030;2022-08-05T12:26:52;61.59;56.90;67.42;;
72028;Laerm;59781;52.090;5.030;2022-08-05T12:29:22;59.96;46.44;74.97;;
72028;Laerm;59781;52.090;5.030;2022-08-05T12:31:57;61.17;57.08;65.14;;
72028;Laerm;59781;52.090;5.030;2022-08-05T12:34:29;61.51;56.92;65.52;;
72028;Laerm;59781;52.090;5.030;2022-08-05T12:37:00;56.04;38.55;69.02;;
72028;Laerm;59781;52.090;5.030;2022-08-05T12:39:32;53.58;38.72;71.72;;
72028;Laerm;59781;52.090;5.030;2022-08-05T12:41:58;48.73;38.25;77.59;;
72028;Laerm;59781;52.090;5.030;2022-08-05T12:44:25;43.21;37.54;63.30;;
72028;Laerm;59781;52.090;5.030;2022-08-05T12:46:54;46.69;38.56;72.31;;
72028;Laerm;59781;52.090;5.030;2022-08-05T12:49:21;61.52;39.58;65.80;;
72028;Laerm;59781;52.090;5.030;2022-08-05T12:51:51;61.56;56.61;65.77;;
72028;Laerm;59781;52.090;5.030;2022-08-05T12:54:24;60.12;38.19;65.98;;
72028;Laerm;59781;52.090;5.030;2022-08-05T12:57:04;46.67;38.61;75.58;;
72028;Laerm;59781;52.090;5.030;2022-08-05T12:59:41;42.74;38.28;57.14;;
72028;Laerm;59781;52.090;5.030;2022-08-05T13:02:10;43.02;37.83;62.72;;
72028;Laerm;59781;52.090;5.030;2022-08-05T13:04:42;49.11;38.22;69.07;;
72028;Laerm;59781;52.090;5.030;2022-08-05T13:07:13;45.34;37.56;63.72;;
72028;Laerm;59781;52.090;5.030;2022-08-05T13:09:50;42.06;38.49;54.56;;
72028;Laerm;59781;52.090;5.030;2022-08-05T13:12:19;41.75;37.88;55.61;;
72028;Laerm;59781;52.090;5.030;2022-08-05T13:15:08;41.42;37.42;61.69;;
72028;Laerm;59781;52.090;5.030;2022-08-05T13:17:35;46.72;39.90;63.64;;
72028;Laerm;59781;52.090;5.030;2022-08-05T13:20:15;41.72;37.81;54.75;;
72028;Laerm;59781;52.090;5.030;2022-08-05T13:22:51;42.72;38.24;55.25;;
72028;Laerm;59781;52.090;5.030;2022-08-05T13:25:19;43.59;38.14;60.76;;
72028;Laerm;59781;52.090;5.030;2022-08-05T13:27:50;46.39;38.93;60.42;;
72028;Laerm;59781;52.090;5.030;2022-08-05T13:30:19;50.19;38.19;66.73;;
72028;Laerm;59781;52.090;5.030;2022-08-05T13:32:46;43.53;38.41;60.77;;
72028;Laerm;59781;52.090;5.030;2022-08-05T13:35:14;42.26;37.55;55.37;;
72028;Laerm;59781;52.090;5.030;2022-08-05T13:37:41;51.42;37.85;75.04;;
72028;Laerm;59781;52.090;5.030;2022-08-05T13:40:08;56.63;38.83;72.89;;
72028;Laerm;59781;52.090;5.030;2022-08-05T13:42:35;42.01;37.34;58.65;;
72028;Laerm;59781;52.090;5.030;2022-08-05T13:45:02;45.89;38.76;60.65;;
72028;Laerm;59781;52.090;5.030;2022-08-05T13:47:28;42.49;38.09;52.60;;
72028;Laerm;59781;52.090;5.030;2022-08-05T13:49:54;41.44;38.30;51.07;;
72028;Laerm;59781;52.090;5.030;2022-08-05T13:52:25;43.24;37.65;51.71;;
72028;Laerm;59781;52.090;5.030;2022-08-05T13:54:52;40.29;37.32;46.94;;
72028;Laerm;59781;52.090;5.030;2022-08-05T13:57:19;42.60;37.77;62.92;;
72028;Laerm;59781;52.090;5.030;2022-08-05T13:59:45;41.29;37.92;61.66;;
72028;Laerm;59781;52.090;5.030;2022-08-05T14:02:13;41.48;37.95;61.14;;
72028;Laerm;59781;52.090;5.030;2022-08-05T14:04:43;41.49;37.11;61.26;;
72028;Laerm;59781;52.090;5.030;2022-08-05T14:07:35;41.33;37.60;52.60;;
72028;Laerm;59781;52.090;5.030;2022-08-05T14:10:14;43.85;38.38;71.87;;
72028;Laerm;59781;52.090;5.030;2022-08-05T14:12:42;41.18;37.41;59.25;;
72028;Laerm;59781;52.090;5.030;2022-08-05T14:15:09;44.66;37.84;69.29;;
72028;Laerm;59781;52.090;5.030;2022-08-05T14:17:35;45.61;38.66;67.21;;
72028;Laerm;59781;52.090;5.030;2022-08-05T14:20:01;44.25;38.32;56.66;;
72028;Laerm;59781;52.090;5.030;2022-08-05T14:22:28;44.20;38.65;57.37;;
72028;Laerm;59781;52.090;5.030;2022-08-05T14:24:53;45.07;37.86;54.90;;
72028;Laerm;59781;52.090;5.030;2022-08-05T14:27:19;43.33;37.86;56.61;;